Details for Thomas Cook Airlines at EGPF




Go Back


Latest METAR
Local Time

EGPF 220820Z AUTO 24007KT 210V280 9999 NCD 10/06 Q1013
22/09/2018, 09:52:37

Description
Results
Thomas Cook Airlines Logo
Number of Pilots based at EGPF
3 Pilots Based here
Number of Thomas Cook Airlines Flights Departed from EGPF
0 Flights Departed
Number of Thomas Cook Airlines Flights Arrived at EGPF
0 Flights Arrived
Number of Thomas Cook Airlines Schedules Departing from EGPF
26 Schedules
Number of Thomas Cook Airlines Schedules Arriving at EGPF
26 Schedules
Number of Thomas Cook Airlines Schedules Departing from EGPF availible today
6 Schedules Today
Number of Thomas Cook Airlines Schedules Arriving at EGPF availible today
6 Schedules Today
Average Landing Rate at EGPF
-203 fpm
Thomas Cook Airlines Average Landing Rate at EGPF
0 fpm
Total Fuel Purchased at EGPF by Thomas Cook Airlines
0.00 kgs / 0.00 lbs

Pilots Based at EGPF


Pilot ID
Pilot Name
Pilot Rank
No. of Flights
No. of Flying Hours
Ross Gunn
7
12.1
Renaat Meeuws
45
69.55
Thomas Bell
459
777.44
Content